Time;durP1;ratioP1;P1;durP2;ratioP2;P2;SDS_P1;SDS_P2;PMS_P1;PMS_P2;Temp;Humidity;BMP_temperature;BMP_pressure;BME280_temperature;BME280_humidity;BME280_pressure;Samples;Min_cycle;Max_cycle;Signal;HPM_P1;HPM_P2
2022/09/19 00:02:04;;;;;;;;;;;;;;;16.07;49.81;99444.84;4446389;32;19973;-81
2022/09/19 00:04:31;;;;;;;;;;;;;;;16.12;49.37;99448.28;4445899;32;19993;-82
2022/09/19 00:06:59;;;;;;;;;;;;;;;16.20;48.81;99436.81;4432357;32;20064;-84
2022/09/19 00:09:27;;;;;;;;;;;;;;;15.91;49.88;99433.72;4431701;32;19988;-83
2022/09/19 00:11:55;;;;;;;;;;;;;;;15.79;50.04;99433.00;4431856;32;20008;-83
2022/09/19 00:14:24;;;;;;;;;;;;;;;15.84;51.95;99426.88;4432404;32;20409;-82
2022/09/19 00:16:58;;;;;;;;;;;;;;;16.14;49.30;99425.59;4446200;32;19977;-83
2022/09/19 00:19:25;;;;;;;;;;;;;;;16.19;49.05;99415.97;4446123;32;20808;-85
2022/09/19 00:21:53;;;;;;;;;;;;;;;15.95;50.68;99414.53;4446546;32;19993;-84
2022/09/19 00:24:49;;;;;;;;;;;;;;;16.01;49.95;99404.00;4445696;32;19989;-82
2022/09/19 00:27:21;;;;;;;;;;;;;;;16.03;50.13;99397.03;4446112;32;20346;-85
2022/09/19 00:29:49;;;;;;;;;;;;;;;16.04;49.90;99393.53;4446081;32;19996;-85
2022/09/19 00:32:16;;;;;;;;;;;;;;;16.14;50.88;99389.91;4445455;32;19981;-85
2022/09/19 00:34:44;;;;;;;;;;;;;;;16.11;48.72;99384.72;4446189;32;19985;-81
2022/09/19 00:37:11;;;;;;;;;;;;;;;15.99;49.75;99387.53;4431625;32;20685;-84
2022/09/19 00:39:38;;;;;;;;;;;;;;;15.79;51.46;99393.88;4445815;32;20022;-85
2022/09/19 00:42:05;;;;;;;;;;;;;;;15.95;50.94;99383.19;4445716;32;20007;-83
2022/09/19 00:44:32;;;;;;;;;;;;;;;16.03;50.48;99381.38;4431205;32;20022;-83
2022/09/19 00:47:00;;;;;;;;;;;;;;;15.75;51.69;99381.72;4445083;32;20060;-84
2022/09/19 00:49:28;;;;;;;;;;;;;;;16.04;50.78;99388.31;4430544;32;20315;-82
2022/09/19 00:51:55;;;;;;;;;;;;;;;15.87;50.67;99391.16;4418843;32;19996;-81
2022/09/19 00:54:23;;;;;;;;;;;;;;;15.95;50.11;99394.53;4408202;32;19993;-82
2022/09/19 00:56:51;;;;;;;;;;;;;;;15.93;50.72;99395.44;4406963;32;20001;-84
2022/09/19 00:59:18;;;;;;;;;;;;;;;15.74;51.37;99405.22;4384668;32;20093;-80
2022/09/19 01:01:45;;;;;;;;;;;;;;;15.86;50.20;99394.66;4403779;32;20378;-83
2022/09/19 01:04:14;;;;;;;;;;;;;;;15.74;50.64;99390.44;4397416;32;19990;-83
2022/09/19 01:06:58;;;;;;;;;;;;;;;15.51;51.15;99389.81;4340739;32;20010753;-84
2022/09/19 01:09:36;;;;;;;;;;;;;;;15.58;51.14;99384.50;4412455;32;20011;-87
2022/09/19 01:12:09;;;;;;;;;;;;;;;15.87;50.15;99382.47;4399833;32;20002;-82
2022/09/19 01:14:54;;;;;;;;;;;;;;;15.61;50.97;99391.44;4412599;32;19994;-81
2022/09/19 01:17:26;;;;;;;;;;;;;;;15.46;50.92;99394.22;4399930;32;20008;-82
2022/09/19 01:19:59;;;;;;;;;;;;;;;15.25;51.26;99406.59;4417387;32;20168;-81
2022/09/19 01:22:30;;;;;;;;;;;;;;;15.32;51.18;99397.84;4413780;32;19994;-84
2022/09/19 01:24:58;;;;;;;;;;;;;;;15.38;49.84;99394.31;4403136;32;20001;-84
2022/09/19 01:27:30;;;;;;;;;;;;;;;15.25;51.75;99390.97;4435384;32;20008;-85
2022/09/19 01:30:04;;;;;;;;;;;;;;;14.66;51.95;99384.53;4415301;32;20013;-85
2022/09/19 01:32:37;;;;;;;;;;;;;;;14.51;53.06;99384.63;4421162;32;19993;-83
2022/09/19 01:35:06;;;;;;;;;;;;;;;14.63;53.16;99380.19;4426800;32;19981;-82
2022/09/19 01:37:35;;;;;;;;;;;;;;;15.10;52.43;99386.75;4440800;32;19996;-82
2022/09/19 01:40:02;;;;;;;;;;;;;;;14.96;52.94;99382.53;4446564;32;19985;-84
2022/09/19 01:42:30;;;;;;;;;;;;;;;15.04;53.39;99376.37;4455009;32;19985;-85
2022/09/19 01:44:57;;;;;;;;;;;;;;;15.26;52.60;99371.81;4449443;32;19973;-84
2022/09/19 01:47:30;;;;;;;;;;;;;;;14.73;53.08;99373.19;4447703;32;20360;-86
2022/09/19 01:50:05;;;;;;;;;;;;;;;14.73;53.24;99360.16;4431142;32;20424;-84
2022/09/19 01:52:51;;;;;;;;;;;;;;;14.86;53.31;99366.97;4451374;32;20746;-83
2022/09/19 01:55:26;;;;;;;;;;;;;;;14.67;53.44;99364.53;4447242;32;19989;-87
2022/09/19 01:58:04;;;;;;;;;;;;;;;15.04;52.78;99367.69;4447094;32;19992;-85
2022/09/19 02:00:31;;;;;;;;;;;;;;;15.25;52.88;99367.50;4439819;32;20008;-81
2022/09/19 02:03:25;;;;;;;;;;;;;;;15.26;53.13;99377.03;4447555;32;19992;-83
2022/09/19 02:05:53;;;;;;;;;;;;;;;15.21;53.45;99368.37;4445651;32;19995;-83
2022/09/19 02:08:28;;;;;;;;;;;;;;;15.27;53.56;99357.88;4446739;32;20363;-82
2022/09/19 02:10:57;;;;;;;;;;;;;;;15.29;53.50;99350.94;4435827;32;20037;-83
2022/09/19 02:13:30;;;;;;;;;;;;;;;15.35;53.98;99366.50;4441584;32;20052;-80
2022/09/19 02:15:59;;;;;;;;;;;;;;;15.67;51.96;99377.50;4444991;32;20031;-83
2022/09/19 02:18:30;;;;;;;;;;;;;;;15.35;53.22;99382.16;4447122;32;19984;-84
2022/09/19 02:20:59;;;;;;;;;;;;;;;15.69;51.87;99376.56;4457641;32;20003;-83
2022/09/19 02:23:30;;;;;;;;;;;;;;;15.58;51.90;99376.69;4443892;32;20426;-81
2022/09/19 02:25:58;;;;;;;;;;;;;;;15.50;52.66;99380.25;4444075;32;20398;-83
2022/09/19 02:28:29;;;;;;;;;;;;;;;15.67;51.34;99383.56;4432295;32;19977;-83
2022/09/19 02:30:57;;;;;;;;;;;;;;;15.66;51.87;99384.41;4445412;32;19996;-82
2022/09/19 02:33:24;;;;;;;;;;;;;;;15.62;52.92;99385.31;4454127;32;20003;-82
2022/09/19 02:35:59;;;;;;;;;;;;;;;15.69;52.78;99393.97;4440752;32;20082;-85
2022/09/19 02:38:30;;;;;;;;;;;;;;;15.65;52.81;99390.50;4445037;32;20012;-80
2022/09/19 02:41:02;;;;;;;;;;;;;;;15.56;51.73;99393.22;4447156;32;20003;-81
2022/09/19 02:43:33;;;;;;;;;;;;;;;15.48;51.96;99392.47;4451281;32;20007;-85
2022/09/19 02:46:04;;;;;;;;;;;;;;;15.34;52.15;99396.06;4445871;32;20040;-80
2022/09/19 02:48:34;;;;;;;;;;;;;;;15.42;52.59;99396.00;4446410;32;19977;-80
2022/09/19 02:51:10;;;;;;;;;;;;;;;14.79;53.54;99380.94;4446482;32;20352;-83
2022/09/19 02:53:40;;;;;;;;;;;;;;;15.35;53.14;99376.94;4445954;32;20357;-80
2022/09/19 02:56:14;;;;;;;;;;;;;;;15.59;52.49;99374.91;4432762;32;19980;-81
2022/09/19 02:58:44;;;;;;;;;;;;;;;15.66;52.21;99381.78;4445094;32;20034;-84
2022/09/19 03:01:14;;;;;;;;;;;;;;;15.65;52.79;99369.63;4445771;32;20052;-83
2022/09/19 03:06:35;;;;;;;;;;;;;;;15.66;52.76;99368.75;4429807;32;20056;-83
2022/09/19 03:09:02;;;;;;;;;;;;;;;15.75;52.21;99365.19;4431777;32;19973;-85
2022/09/19 03:11:33;;;;;;;;;;;;;;;15.67;53.34;99364.44;4442983;32;19985;-85
2022/09/19 03:14:00;;;;;;;;;;;;;;;15.60;53.35;99366.22;4430168;32;19985;-83
2022/09/19 03:16:34;;;;;;;;;;;;;;;15.45;55.70;99361.19;4430085;32;19991;-83
2022/09/19 03:19:02;;;;;;;;;;;;;;;15.55;55.22;99362.81;4435307;32;19981;-82
2022/09/19 03:21:29;;;;;;;;;;;;;;;15.47;54.72;99359.41;4445245;32;20544;-84
2022/09/19 03:23:58;;;;;;;;;;;;;;;14.63;56.67;99376.75;4446162;32;19993;-84
2022/09/19 03:26:30;;;;;;;;;;;;;;;14.68;57.29;99377.56;4446785;32;20056;-85
2022/09/19 03:28:58;;;;;;;;;;;;;;;14.88;57.10;99377.41;4446807;32;19987;-84
2022/09/19 03:31:26;;;;;;;;;;;;;;;14.87;56.44;99379.16;4445644;32;20031;-82
2022/09/19 03:33:55;;;;;;;;;;;;;;;15.09;56.62;99368.50;4446311;32;19985;-81
2022/09/19 03:36:23;;;;;;;;;;;;;;;15.06;56.41;99368.53;4444880;32;20001;-84
2022/09/19 03:38:50;;;;;;;;;;;;;;;14.88;57.37;99370.44;4418347;32;19991;-81
2022/09/19 03:41:19;;;;;;;;;;;;;;;15.12;56.67;99373.69;4429064;32;20082;-84
2022/09/19 03:43:45;;;;;;;;;;;;;;;14.94;57.33;99382.56;4430983;32;19989;-82
2022/09/19 03:46:13;;;;;;;;;;;;;;;14.73;58.03;99381.00;4432415;32;19985;-82
2022/09/19 03:48:41;;;;;;;;;;;;;;;14.81;57.93;99384.41;4443874;32;20036;-84
2022/09/19 03:51:07;;;;;;;;;;;;;;;14.56;58.84;99383.75;4445971;32;20064;-82
2022/09/19 03:53:34;;;;;;;;;;;;;;;14.23;60.00;99384.81;4446188;32;20005;-83
2022/09/19 03:56:03;;;;;;;;;;;;;;;14.28;60.27;99382.16;4433126;32;20013;-82
2022/09/19 03:58:34;;;;;;;;;;;;;;;14.73;58.52;99386.19;4445522;32;19984;-84
2022/09/19 04:01:02;;;;;;;;;;;;;;;14.61;59.08;99383.69;4431175;32;19993;-83
2022/09/19 04:03:30;;;;;;;;;;;;;;;14.60;59.14;99384.56;4440677;32;20036;-82
2022/09/19 04:05:56;;;;;;;;;;;;;;;14.57;59.26;99389.81;4445975;32;20322;-83
2022/09/19 04:08:24;;;;;;;;;;;;;;;14.55;59.56;99386.34;4446384;32;19969;-81
2022/09/19 04:10:52;;;;;;;;;;;;;;;14.82;58.72;99391.34;4444504;32;19981;-81
2022/09/19 04:13:21;;;;;;;;;;;;;;;15.14;58.04;99382.38;4446772;32;19997;-83
2022/09/19 04:15:49;;;;;;;;;;;;;;;15.19;57.79;99396.22;4446465;32;20022;-81
2022/09/19 04:18:18;;;;;;;;;;;;;;;15.16;57.68;99398.87;4446425;32;20535;-81
2022/09/19 04:20:46;;;;;;;;;;;;;;;15.13;57.60;99391.06;4444474;32;20000;-82
2022/09/19 04:23:16;;;;;;;;;;;;;;;15.24;57.26;99389.22;4437925;32;19985;-83
2022/09/19 04:25:44;;;;;;;;;;;;;;;15.30;56.72;99389.16;4444541;32;19985;-79
2022/09/19 04:28:14;;;;;;;;;;;;;;;15.15;58.60;99389.28;4443922;32;20252;-81
2022/09/19 04:30:41;;;;;;;;;;;;;;;15.37;57.84;99384.72;4443530;32;19977;-82
2022/09/19 04:33:10;;;;;;;;;;;;;;;15.21;57.05;99377.94;4427923;32;19988;-83
2022/09/19 04:35:37;;;;;;;;;;;;;;;15.21;58.11;99380.56;4439448;32;19988;-82
2022/09/19 04:38:06;;;;;;;;;;;;;;;15.26;57.51;99371.81;4445082;32;20040;-82
2022/09/19 04:40:45;;;;;;;;;;;;;;;15.28;58.55;99375.28;4444454;32;20004;-82
2022/09/19 04:43:13;;;;;;;;;;;;;;;15.28;57.84;99375.28;4446344;32;20003;-83
2022/09/19 04:45:44;;;;;;;;;;;;;;;15.46;56.89;99368.13;4443877;32;20008;-81
2022/09/19 04:48:19;;;;;;;;;;;;;;;15.58;56.60;99374.06;4444738;32;20404;-84
2022/09/19 04:50:50;;;;;;;;;;;;;;;15.62;56.71;99374.88;4440335;32;20037;-83
2022/09/19 04:53:18;;;;;;;;;;;;;;;15.38;57.84;99377.75;4429752;32;20012;-83
2022/09/19 04:55:50;;;;;;;;;;;;;;;15.36;59.05;99383.00;4453569;32;20044;-82
2022/09/19 04:58:17;;;;;;;;;;;;;;;15.66;58.00;99381.78;4445905;32;19981;-83
2022/09/19 05:00:45;;;;;;;;;;;;;;;15.65;58.41;99384.44;4445116;32;20000;-82
2022/09/19 05:03:14;;;;;;;;;;;;;;;15.90;56.97;99390.25;4446191;32;19989;-82
2022/09/19 05:05:45;;;;;;;;;;;;;;;15.46;59.15;99394.22;4444374;32;19985;-85
2022/09/19 05:08:15;;;;;;;;;;;;;;;15.30;59.88;99410.00;4445273;32;19996;-87
2022/09/19 05:10:53;;;;;;;;;;;;;;;15.74;58.23;99406.09;4447645;32;20003;-84
2022/09/19 05:13:24;;;;;;;;;;;;;;;15.51;59.80;99413.28;4438355;32;20060;-85
2022/09/19 05:15:51;;;;;;;;;;;;;;;15.30;60.51;99415.22;4437541;32;19977;-85
2022/09/19 05:18:21;;;;;;;;;;;;;;;15.24;61.45;99425.72;4454236;32;19988;-85
2022/09/19 05:20:51;;;;;;;;;;;;;;;15.24;60.72;99430.94;4439215;32;20025;-84
2022/09/19 05:23:19;;;;;;;;;;;;;;;15.10;61.54;99438.03;4459688;32;20330;-85
2022/09/19 05:25:45;;;;;;;;;;;;;;;15.28;61.31;99443.09;4460919;32;19999;-85
2022/09/19 05:28:12;;;;;;;;;;;;;;;15.38;60.77;99448.19;4460635;32;20345;-85
2022/09/19 05:30:45;;;;;;;;;;;;;;;15.59;59.59;99454.06;4461320;32;19999;-82
2022/09/19 05:33:12;;;;;;;;;;;;;;;15.31;61.82;99453.44;4460632;32;19989;-85
2022/09/19 05:35:40;;;;;;;;;;;;;;;15.37;61.21;99451.69;4459343;32;19981;-84
2022/09/19 05:38:08;;;;;;;;;;;;;;;15.46;59.79;99448.97;4460652;32;20471;-82
2022/09/19 05:40:37;;;;;;;;;;;;;;;15.58;58.85;99456.69;4461435;32;19981;-85
2022/09/19 05:43:04;;;;;;;;;;;;;;;15.47;59.51;99454.16;4459733;32;20386;-84
2022/09/19 05:45:32;;;;;;;;;;;;;;;15.49;59.89;99459.37;4458982;32;20704;-85
2022/09/19 05:47:59;;;;;;;;;;;;;;;15.10;61.44;99464.09;4458360;32;19989;-84
2022/09/19 05:50:27;;;;;;;;;;;;;;;15.29;60.91;99463.06;4445930;32;20011;-83
2022/09/19 05:55:40;;;;;;;;;;;;;;;15.16;60.27;99456.22;4459129;32;20491;-83
2022/09/19 05:58:08;;;;;;;;;;;;;;;15.25;60.40;99463.09;4458883;32;19999;-83
2022/09/19 06:00:35;;;;;;;;;;;;;;;15.50;58.85;99461.09;4454101;32;19988;-85
2022/09/19 06:03:03;;;;;;;;;;;;;;;15.22;59.63;99464.00;4447214;32;20381;-83
2022/09/19 06:05:33;;;;;;;;;;;;;;;15.26;59.71;99460.47;4447904;32;19993;-85
2022/09/19 06:08:00;;;;;;;;;;;;;;;15.34;58.84;99463.84;4462979;32;19972;-84
2022/09/19 06:10:28;;;;;;;;;;;;;;;15.01;59.83;99459.81;4463145;32;20327;-82
2022/09/19 06:12:56;;;;;;;;;;;;;;;15.00;60.78;99467.66;4461833;32;20004;-82
2022/09/19 06:15:23;;;;;;;;;;;;;;;15.04;60.61;99470.22;4460482;32;19999;-82
2022/09/19 06:17:54;;;;;;;;;;;;;;;15.10;60.59;99469.31;4462545;32;20036;-83
2022/09/19 06:20:23;;;;;;;;;;;;;;;14.98;61.46;99469.41;4451092;32;20034;-85
2022/09/19 06:23:02;;;;;;;;;;;;;;;14.75;61.80;99462.63;4445163;32;20009;-83
2022/09/19 06:25:29;;;;;;;;;;;;;;;14.94;61.15;99470.31;4461608;32;20334;-84
2022/09/19 06:27:56;;;;;;;;;;;;;;;14.93;61.55;99476.38;4461599;32;20000;-84
2022/09/19 06:30:23;;;;;;;;;;;;;;;15.19;59.71;99469.25;4448886;32;20615;-84
2022/09/19 06:32:52;;;;;;;;;;;;;;;15.07;60.51;99477.16;4448311;32;20474;-83
2022/09/19 06:35:22;;;;;;;;;;;;;;;14.78;61.83;99474.78;4438825;32;19988;-83
2022/09/19 06:37:56;;;;;;;;;;;;;;;14.99;61.25;99486.75;4462842;32;19999;-82
2022/09/19 06:40:23;;;;;;;;;;;;;;;14.41;63.08;99483.63;4462779;32;19977;-84
2022/09/19 06:43:01;;;;;;;;;;;;;;;14.79;61.90;99485.16;4443563;32;20494;-83
2022/09/19 06:45:29;;;;;;;;;;;;;;;14.78;62.19;99493.00;4446749;32;19988;-83
2022/09/19 06:47:57;;;;;;;;;;;;;;;14.81;61.52;99490.37;4434023;32;20047;-82
2022/09/19 06:50:26;;;;;;;;;;;;;;;14.89;62.21;99499.00;4445206;32;19981;-81
2022/09/19 06:52:53;;;;;;;;;;;;;;;14.76;62.62;99500.81;4461920;32;19985;-82
2022/09/19 06:55:23;;;;;;;;;;;;;;;14.78;62.76;99495.63;4450442;32;20034;-83
2022/09/19 06:57:58;;;;;;;;;;;;;;;15.00;61.99;99498.94;4457054;32;19976;-82
2022/09/19 07:00:27;;;;;;;;;;;;;;;14.86;61.53;99494.66;4461784;32;20717;-82
2022/09/19 07:02:59;;;;;;;;;;;;;;;14.89;61.88;99497.25;4447960;32;20004;-82
2022/09/19 07:05:27;;;;;;;;;;;;;;;15.05;60.60;99497.16;4432934;32;20346;-82
2022/09/19 07:07:55;;;;;;;;;;;;;;;14.89;61.88;99502.47;4460204;32;20008;-82
2022/09/19 07:10:23;;;;;;;;;;;;;;;14.84;62.27;99506.84;4462550;32;20011;-82
2022/09/19 07:12:51;;;;;;;;;;;;;;;14.98;61.45;99503.28;4448581;32;19992;-82
2022/09/19 07:15:23;;;;;;;;;;;;;;;15.04;60.92;99500.63;4461984;32;20671;-82
2022/09/19 07:17:54;;;;;;;;;;;;;;;14.55;63.74;99500.94;4462070;32;20318;-83
2022/09/19 07:20:21;;;;;;;;;;;;;;;14.94;62.38;99506.81;4461819;32;20004;-82
2022/09/19 07:23:05;;;;;;;;;;;;;;;14.85;62.90;99495.56;4461752;32;20003;-82
2022/09/19 07:25:39;;;;;;;;;;;;;;;14.93;62.64;99497.22;4462584;32;19989;-81
2022/09/19 07:28:08;;;;;;;;;;;;;;;14.93;63.57;99503.31;4462139;32;19973;-81
2022/09/19 07:30:36;;;;;;;;;;;;;;;14.93;63.91;99497.22;4447550;32;19989;-81
2022/09/19 07:33:04;;;;;;;;;;;;;;;14.85;63.89;99495.56;4462624;32;20060;-83
2022/09/19 07:35:33;;;;;;;;;;;;;;;14.83;64.19;99499.03;4462617;32;20028;-82
2022/09/19 07:38:03;;;;;;;;;;;;;;;14.61;63.30;99498.31;4461543;32;19983;-82
2022/09/19 07:40:34;;;;;;;;;;;;;;;15.30;61.11;99503.88;4462361;32;19992;-81
2022/09/19 07:43:02;;;;;;;;;;;;;;;15.12;63.51;99504.03;4447661;32;20899;-81
2022/09/19 07:45:32;;;;;;;;;;;;;;;15.14;64.48;99502.28;4461555;32;20705;-81
2022/09/19 07:48:02;;;;;;;;;;;;;;;16.13;60.11;99502.22;4461451;32;20311;-82
2022/09/19 07:50:29;;;;;;;;;;;;;;;16.16;60.95;99497.81;4448901;32;19998;-81
2022/09/19 07:52:57;;;;;;;;;;;;;;;16.13;60.10;99503.06;4447557;32;20038;-83
2022/09/19 07:55:25;;;;;;;;;;;;;;;16.72;57.27;99509.28;4461203;32;19994;-82
2022/09/19 07:57:54;;;;;;;;;;;;;;;16.99;57.07;99507.16;4462046;32;19973;-81
2022/09/19 08:00:25;;;;;;;;;;;;;;;16.55;58.33;99526.94;4461633;32;19982;-83
2022/09/19 08:02:55;;;;;;;;;;;;;;;17.27;55.80;99522.44;4448676;32;20491;-82
2022/09/19 08:05:22;;;;;;;;;;;;;;;16.84;57.57;99533.53;4462116;32;20483;-82
2022/09/19 08:07:49;;;;;;;;;;;;;;;16.76;57.31;99524.97;4447046;32;19985;-82
2022/09/19 08:10:17;;;;;;;;;;;;;;;16.63;56.82;99535.53;4461995;32;20709;-83
2022/09/19 08:12:47;;;;;;;;;;;;;;;16.43;55.06;99537.53;4461334;32;20310;-83
2022/09/19 08:15:15;;;;;;;;;;;;;;;16.60;54.40;99530.34;4453196;32;20000;-82
2022/09/19 08:17:43;;;;;;;;;;;;;;;16.69;54.91;99540.69;4447968;32;19984;-84
2022/09/19 08:20:10;;;;;;;;;;;;;;;16.58;53.48;99537.34;4461463;32;19989;-86
2022/09/19 08:22:37;;;;;;;;;;;;;;;16.55;51.45;99532.16;4461693;32;19989;-83
2022/09/19 08:25:05;;;;;;;;;;;;;;;16.35;54.76;99534.16;4461776;32;20026;-82
2022/09/19 08:27:32;;;;;;;;;;;;;;;16.44;54.23;99528.84;4461053;32;20025;-82
2022/09/19 08:29:58;;;;;;;;;;;;;;;16.13;53.31;99547.47;4447349;32;19989;-81
2022/09/19 08:32:26;;;;;;;;;;;;;;;15.88;53.07;99548.63;4462090;32;20826;-83
2022/09/19 08:34:53;;;;;;;;;;;;;;;16.22;50.77;99552.59;4461940;32;20313;-83
2022/09/19 08:37:21;;;;;;;;;;;;;;;15.71;51.76;99556.63;4461040;32;19973;-83
2022/09/19 08:42:37;;;;;;;;;;;;;;;17.00;48.35;99555.94;4457972;32;20024;-82
2022/09/19 08:45:11;;;;;;;;;;;;;;;16.93;50.97;99551.72;4461450;32;19992;-83
2022/09/19 08:47:38;;;;;;;;;;;;;;;17.35;48.10;99554.56;4461564;32;19976;-81
2022/09/19 08:50:09;;;;;;;;;;;;;;;17.82;45.72;99552.91;4460328;32;20325;-82
2022/09/19 08:52:37;;;;;;;;;;;;;;;17.93;45.65;99556.19;4447793;32;20284;-83
2022/09/19 08:55:11;;;;;;;;;;;;;;;17.76;47.87;99553.00;4447032;32;19984;-82
2022/09/19 08:57:41;;;;;;;;;;;;;;;17.76;45.56;99553.84;4445014;32;20450;-81
2022/09/19 09:00:16;;;;;;;;;;;;;;;17.83;44.95;99554.62;4461092;32;20099;-82
2022/09/19 09:02:59;;;;;;;;;;;;;;;18.00;42.95;99557.81;4440749;32;19988;-81
2022/09/19 09:05:36;;;;;;;;;;;;;;;17.98;46.00;99564.84;4446350;32;20043;-83
2022/09/19 09:08:22;;;;;;;;;;;;;;;18.07;46.44;99562.03;4450902;32;19981;-81
2022/09/19 09:10:50;;;;;;;;;;;;;;;18.48;42.52;99560.38;4444375;32;20023;-83
2022/09/19 09:13:20;;;;;;;;;;;;;;;18.13;44.71;99568.94;4460816;32;19980;-80
2022/09/19 09:16:06;;;;;;;;;;;;;;;18.09;47.46;99576.00;4445011;32;20004;-83
2022/09/19 09:18:43;;;;;;;;;;;;;;;18.37;41.91;99572.81;4454916;32;20031;-82
2022/09/19 09:21:21;;;;;;;;;;;;;;;17.67;45.86;99570.56;4461527;32;20004;-82
2022/09/19 09:23:51;;;;;;;;;;;;;;;18.01;44.65;99575.25;4447055;32;20024;-82
2022/09/19 09:26:21;;;;;;;;;;;;;;;18.16;46.18;99578.50;4446497;32;20375;-82
2022/09/19 09:28:49;;;;;;;;;;;;;;;18.92;41.36;99576.06;4453335;32;20015;-81
2022/09/19 09:31:19;;;;;;;;;;;;;;;18.68;43.66;99572.19;4460884;32;20019;-82
2022/09/19 09:33:51;;;;;;;;;;;;;;;18.90;42.84;99568.25;4460237;32;19996;-84
2022/09/19 09:36:23;;;;;;;;;;;;;;;18.70;41.93;99571.28;4445296;32;20649;-85
2022/09/19 09:38:57;;;;;;;;;;;;;;;18.53;41.30;99576.00;4460953;32;19994;-84
2022/09/19 09:41:48;;;;;;;;;;;;;;;18.17;41.87;99575.84;4448190;32;19981;-82
2022/09/19 09:44:20;;;;;;;;;;;;;;;18.04;42.28;99585.69;4442483;32;20623;-82
2022/09/19 09:46:53;;;;;;;;;;;;;;;17.55;44.71;99581.28;4459890;32;19976;-80
2022/09/19 09:49:22;;;;;;;;;;;;;;;17.54;43.70;99584.75;4462293;32;20037;-80
2022/09/19 09:52:15;;;;;;;;;;;;;;;17.82;42.87;99573.87;4462271;32;20034;-80
2022/09/19 09:57:35;;;;;;;;;;;;;;;17.94;42.79;99584.13;4450849;32;20003;-81
2022/09/19 10:05:56;;;;;;;;;;;;;;;17.77;45.95;99591.41;4458782;32;20041;-84
2022/09/19 10:08:27;;;;;;;;;;;;;;;17.92;45.28;99608.59;4440064;32;20735;-83
2022/09/19 10:11:02;;;;;;;;;;;;;;;17.63;49.09;99612.53;4279133;32;5004046;-82
2022/09/19 10:13:31;;;;;;;;;;;;;;;17.32;50.54;99614.78;4456058;32;20025;-85
2022/09/19 10:16:02;;;;;;;;;;;;;;;17.07;52.72;99625.63;4444055;32;19984;-82
2022/09/19 10:18:43;;;;;;;;;;;;;;;16.92;54.59;99610.13;4441549;32;20019;-84
2022/09/19 10:21:10;;;;;;;;;;;;;;;16.81;56.54;99612.84;4455042;32;19993;-83
2022/09/19 10:23:39;;;;;;;;;;;;;;;16.69;58.64;99613.88;4453543;32;19989;-82
2022/09/19 10:26:14;;;;;;;;;;;;;;;17.44;54.49;99604.13;4440582;32;20144;-83
2022/09/19 10:28:53;;;;;;;;;;;;;;;17.87;50.38;99603.47;4441236;32;19981;-82
2022/09/19 10:31:28;;;;;;;;;;;;;;;18.06;49.52;99597.00;4455860;32;19965;-82
2022/09/19 10:33:55;;;;;;;;;;;;;;;18.16;49.22;99594.22;4453403;32;19985;-82
2022/09/19 10:36:26;;;;;;;;;;;;;;;18.05;52.57;99597.87;4454730;32;20040;-82
2022/09/19 10:38:54;;;;;;;;;;;;;;;18.32;50.91;99598.25;4441009;32;19989;-83
2022/09/19 10:41:23;;;;;;;;;;;;;;;18.78;44.98;99589.47;4457806;32;19977;-81
2022/09/19 10:43:51;;;;;;;;;;;;;;;18.59;49.05;99595.06;4440864;32;20031;-81
2022/09/19 10:46:20;;;;;;;;;;;;;;;18.96;46.30;99583.84;4439635;32;19977;-82
2022/09/19 10:48:56;;;;;;;;;;;;;;;19.08;44.47;99584.44;4456076;32;20044;-82
2022/09/19 10:51:31;;;;;;;;;;;;;;;19.00;42.66;99592.50;4441174;32;20014;-83
2022/09/19 10:53:58;;;;;;;;;;;;;;;19.29;41.58;99581.34;4434830;32;20004;-83
2022/09/19 10:56:26;;;;;;;;;;;;;;;19.12;43.78;99573.00;4440591;32;20031;-83
2022/09/19 10:59:01;;;;;;;;;;;;;;;19.55;40.83;99572.81;4436271;32;20342;-82
2022/09/19 11:01:28;;;;;;;;;;;;;;;19.00;40.81;99585.50;4455270;32;20168;-82
2022/09/19 11:03:57;;;;;;;;;;;;;;;18.44;41.77;99582.31;4454597;32;20317;-82
2022/09/19 11:06:23;;;;;;;;;;;;;;;18.45;41.82;99580.53;4455699;32;20404;-82
2022/09/19 11:08:51;;;;;;;;;;;;;;;18.12;42.88;99585.53;4440067;32;20004;-83
2022/09/19 11:11:19;;;;;;;;;;;;;;;17.92;43.42;99601.59;4454638;32;19995;-82
2022/09/19 11:13:50;;;;;;;;;;;;;;;17.48;47.43;99641.56;4462065;32;20029;-84
2022/09/19 11:16:29;;;;;;;;;;;;;;;17.36;51.32;99651.34;4448524;32;19999;-82
2022/09/19 11:19:06;;;;;;;;;;;;;;;17.08;53.38;99658.72;4448187;32;20037;-82
2022/09/19 11:21:41;;;;;;;;;;;;;;;16.80;53.18;99662.56;4462306;32;20387;-83
2022/09/19 11:24:11;;;;;;;;;;;;;;;16.39;54.45;99656.03;4462214;32;19996;-83
2022/09/19 11:26:48;;;;;;;;;;;;;;;15.86;57.49;99655.66;4462259;32;20367;-83
2022/09/19 11:29:17;;;;;;;;;;;;;;;16.06;54.70;99652.88;4460529;32;20007;-83
2022/09/19 11:31:46;;;;;;;;;;;;;;;15.97;55.88;99642.50;4462404;32;19977;-82
2022/09/19 11:34:36;;;;;;;;;;;;;;;15.89;56.50;99639.97;4461187;32;19988;-83
2022/09/19 11:37:28;;;;;;;;;;;;;;;15.80;57.66;99633.09;4446918;32;19999;-85
2022/09/19 11:39:55;;;;;;;;;;;;;;;15.96;59.79;99630.34;4445436;32;19980;-85
2022/09/19 11:42:23;;;;;;;;;;;;;;;16.21;58.57;99637.06;4447391;32;19981;-82
2022/09/19 11:44:57;;;;;;;;;;;;;;;16.45;57.88;99642.87;4461436;32;19999;-83
2022/09/19 11:47:34;;;;;;;;;;;;;;;16.56;55.80;99643.66;4462571;32;19988;-83
2022/09/19 11:50:17;;;;;;;;;;;;;;;16.35;56.97;99643.87;4460957;32;20314;-84
2022/09/19 11:53:03;;;;;;;;;;;;;;;15.85;58.26;99642.59;4441302;32;19973;-82
2022/09/19 11:55:43;;;;;;;;;;;;;;;16.09;57.43;99642.41;4454902;32;19997;-83
2022/09/19 11:58:31;;;;;;;;;;;;;;;16.21;56.65;99647.50;4445122;32;20034;-83
2022/09/19 12:01:16;;;;;;;;;;;;;;;16.02;55.74;99657.25;4445784;32;20404;-82
2022/09/19 12:04:02;;;;;;;;;;;;;;;15.99;55.19;99651.19;4446266;32;20392;-82
2022/09/19 12:06:42;;;;;;;;;;;;;;;15.81;56.74;99666.13;4433155;32;20068;-82
2022/09/19 12:09:09;;;;;;;;;;;;;;;15.75;56.92;99658.34;4432836;32;20348;-82
2022/09/19 12:11:37;;;;;;;;;;;;;;;15.70;56.91;99654.91;4437418;32;20034;-83
2022/09/19 12:14:05;;;;;;;;;;;;;;;15.65;55.93;99655.78;4400426;32;20033;-82
2022/09/19 12:16:32;;;;;;;;;;;;;;;15.70;56.00;99659.28;4399926;32;20017;-83
2022/09/19 12:19:23;;;;;;;;;;;;;;;15.67;55.71;99660.16;4399821;32;20034;-82
2022/09/19 12:21:52;;;;;;;;;;;;;;;15.70;57.25;99660.13;4406838;32;19985;-82
2022/09/19 12:27:11;;;;;;;;;;;;;;;15.78;55.00;99655.69;4413616;32;20002;-82
2022/09/19 12:29:59;;;;;;;;;;;;;;;15.88;54.94;99668.69;4425747;32;19993;-82
2022/09/19 12:32:26;;;;;;;;;;;;;;;16.05;53.82;99656.38;4411338;32;19981;-82
2022/09/19 12:34:54;;;;;;;;;;;;;;;15.98;53.45;99659.88;4415423;32;20769;-82
2022/09/19 12:37:45;;;;;;;;;;;;;;;15.85;54.33;99659.13;4426823;32;20394;-83
2022/09/19 12:40:15;;;;;;;;;;;;;;;15.72;55.15;99666.19;4414770;32;19994;-81
2022/09/19 12:42:50;;;;;;;;;;;;;;;15.77;55.52;99661.81;4419400;32;20055;-82
2022/09/19 12:45:55;;;;;;;;;;;;;;;16.07;54.43;99665.03;4431094;32;19985;-82
2022/09/19 12:48:28;;;;;;;;;;;;;;;15.87;58.05;99664.34;4384867;32;20002;-84
2022/09/19 12:50:56;;;;;;;;;;;;;;;16.08;53.04;99661.56;4429673;32;20383;-80
2022/09/19 12:53:40;;;;;;;;;;;;;;;16.02;53.38;99656.41;4421092;32;20003;-81
2022/09/19 12:56:26;;;;;;;;;;;;;;;16.30;52.26;99661.34;4442148;32;19991;-80
2022/09/19 12:59:13;;;;;;;;;;;;;;;16.41;51.94;99656.88;4438874;32;20031;-82
2022/09/19 13:01:41;;;;;;;;;;;;;;;16.06;51.60;99668.53;4439543;32;19981;-84
2022/09/19 13:04:21;;;;;;;;;;;;;;;16.24;52.60;99663.16;4443726;32;20005;-85
2022/09/19 13:06:49;;;;;;;;;;;;;;;16.37;51.11;99658.66;4428489;32;19988;-82
2022/09/19 13:09:32;;;;;;;;;;;;;;;16.21;56.06;99652.72;4424631;32;20023;-82
2022/09/19 13:12:05;;;;;;;;;;;;;;;16.58;52.01;99647.09;4430748;32;20736;-82
2022/09/19 13:14:44;;;;;;;;;;;;;;;16.81;51.63;99643.37;4440503;32;19982;-83
2022/09/19 13:25:37;;;;;;;;;;;;;;;17.55;48.60;99646.72;4423777;32;19989;-84
2022/09/19 13:28:19;;;;;;;;;;;;;;;17.80;47.90;99641.09;4414407;32;19997;-84
2022/09/19 13:30:48;;;;;;;;;;;;;;;18.03;45.87;99636.34;4430990;32;20000;-83
2022/09/19 13:33:24;;;;;;;;;;;;;;;17.98;44.86;99640.78;4431680;32;19993;-82
2022/09/19 13:35:52;;;;;;;;;;;;;;;17.78;46.12;99650.75;4429846;32;19993;-81